Airfield :
LOGIN :

Register | Disclaimer

   EN    FR    IT 

 










Legend :    VFR   Marginal VFR   IFR   Intensive IFR   Very Intensive IFR
Visi :
Ceiling :
>= 8 km
>= 3000ft
5 to 8 km
1000 to 3000 ft
1500m to 5 km
500 to 1000 ft
800 to 1500m
200 to 500 ft
< 800m
< 200 ft
Symbols :   Thunderstorms  Fog  Heavy snow  Heavy precipitations  Wind > 20 kt
SIGMETs :     Misc.  Thunderstorms  Icing  Turbulence  Mountain Waves  Volcanic Ashes






- Airport Elevation : 53 ft
- IATA code : LBC


EDHL - Lübeck

CURRENT METAR :
  • 011020Z 22004KT 160V310 9999 BKN011 05/03 Q1036

EXPIRED METARs :
  • 010950Z 21004KT 160V270 9999 BKN010 05/02 Q1036
  • 010920Z VRB03KT 9999 BKN009 05/03 Q1036
  • 010850Z 22004KT 170V260 9999 FEW006 BKN008 05/02 Q1036
  • 010820Z VRB02KT 9999 BKN007 05/M03 Q1036
  • 010750Z 25003KT 220V310 9999 BKN008 04/02 Q1036

TAF TAF EDHL
Valid from the 01 at 09:00 until the 01 at 18:00 UTC


010800Z 0109/0118 VRB03KT 9999 BKN008
TEMPO 0109/0112 3500 BR BKN004
PROB30
TEMPO 0109/0111 1500 BCFG
BECMG 0111/0113 BKN012
TEMPO 0112/0118 SCT015



MET'MAP, your aeronautical weather chart ! - Copyright ORBIFLY December 2007 - Disclaimer

ORBIFLY MET'MAP TEAM :

Programming & Development : Alexandra Zaïnal
Concept & original design : Baudouin d'Aumeries
Assistance for programming : Marc-Olivier Méhu
Technical & hardware support : Manuel Goepfert

Contact : metmap@orbifly.com




SOURCES & CREDITS :

   NOAA